createdAt,value
2022-10-22T00:01:35.649Z,100486.75
2022-10-22T00:04:50.506Z,100488.88
2022-10-22T00:07:59.024Z,100489.41
2022-10-22T00:11:22.462Z,100487.78
2022-10-22T00:14:24.259Z,100485.63
2022-10-22T00:17:39.678Z,100486.19
2022-10-22T00:20:54.541Z,100492.06
2022-10-22T00:24:03.149Z,100489.41
2022-10-22T00:27:19.490Z,100488.03
2022-10-22T00:30:28.091Z,100494.75
2022-10-22T00:33:37.475Z,100482.94
2022-10-22T00:36:52.509Z,100478.94
2022-10-22T00:39:54.298Z,100481.91
2022-10-22T00:43:09.491Z,100470.87
2022-10-22T00:46:11.317Z,100466.34
2022-10-22T00:49:26.480Z,100470.13
2022-10-22T00:52:35.504Z,100470.66
2022-10-22T00:55:52.476Z,100466.66
2022-10-22T00:59:04.589Z,100456.75
2022-10-22T01:02:13.084Z,100456.75
2022-10-22T01:05:28.484Z,100459.19
2022-10-22T01:08:54.968Z,100468.63
2022-10-22T01:12:25.488Z,100464.03
2022-10-22T01:15:41.498Z,100481.19
2022-10-22T01:19:28.463Z,100465.09
2022-10-22T01:23:18.496Z,100469.66
2022-10-22T01:26:45.500Z,100470.72
2022-10-22T01:29:51.953Z,100475.81
2022-10-22T01:33:11.485Z,100465.34
2022-10-22T01:36:15.340Z,100468.84
2022-10-22T01:39:32.500Z,100462.44
2022-10-22T01:42:34.340Z,100468.63
2022-10-22T01:45:56.476Z,100474.03
2022-10-22T01:49:23.510Z,100470.53
2022-10-22T01:52:57.002Z,100458.78
2022-10-22T01:56:17.496Z,100456.66
2022-10-22T01:59:55.495Z,100450.28
2022-10-22T02:03:28.472Z,100441.44
2022-10-22T02:06:40.269Z,100443.03
2022-10-22T02:09:58.492Z,100448.97
2022-10-22T02:13:14.194Z,100455.13
2022-10-22T02:16:35.515Z,100442.28
2022-10-22T02:19:59.470Z,100437.72
2022-10-22T02:23:15.486Z,100448.97
2022-10-22T02:26:39.411Z,100452.44
2022-10-22T02:30:10.570Z,100461.09
2022-10-22T02:33:34.527Z,100461.72
2022-10-22T02:36:46.812Z,100443.53
2022-10-22T02:39:59.499Z,100454.84
2022-10-22T02:43:14.481Z,100458.28
2022-10-22T02:46:24.465Z,100436.87
2022-10-22T02:49:32.463Z,100443.31
2022-10-22T02:52:47.495Z,100448.69
2022-10-22T02:55:49.748Z,100459.38
2022-10-22T02:59:04.476Z,100464.22
2022-10-22T03:02:06.324Z,100470.66
2022-10-22T03:05:21.478Z,100477.66
2022-10-22T03:08:36.536Z,100466.47
2022-10-22T03:11:51.453Z,100470.28
2022-10-22T03:14:59.505Z,100474.66
2022-10-22T03:18:08.082Z,100467.75
2022-10-22T03:21:33.507Z,100463.56
2022-10-22T03:24:46.373Z,100459.25
2022-10-22T03:27:58.501Z,100452.03
2022-10-22T03:31:07.163Z,100441.88
2022-10-22T03:34:21.486Z,100449.34
2022-10-22T03:37:31.459Z,100452.03
2022-10-22T03:40:42.491Z,100434.09
2022-10-22T03:43:50.465Z,100418.59
2022-10-22T03:47:01.748Z,100415.38
2022-10-22T03:50:12.494Z,100407.88
2022-10-22T03:53:27.483Z,100403.34
2022-10-22T03:56:42.481Z,100408.97
2022-10-22T03:59:57.501Z,100406.63
2022-10-22T04:03:06.986Z,100423.28
2022-10-22T04:06:21.487Z,100417.72
2022-10-22T04:09:30.477Z,100426.84
2022-10-22T04:12:45.512Z,100430.34
2022-10-22T04:16:00.489Z,100434.66
2022-10-22T04:19:09.518Z,100434.38
2022-10-22T04:22:24.709Z,100436.75
2022-10-22T04:25:33.526Z,100421.22
2022-10-22T04:28:42.538Z,100434.88
2022-10-22T04:31:57.491Z,100431.16
2022-10-22T04:35:06.402Z,100442.91
2022-10-22T04:38:14.477Z,100436.25
2022-10-22T04:41:32.466Z,100434.38
2022-10-22T04:44:47.525Z,100431.16
2022-10-22T04:47:55.474Z,100418.09
2022-10-22T04:51:05.333Z,100429.87
2022-10-22T04:54:14.953Z,100424.81
2022-10-22T04:57:30.486Z,100416.78
2022-10-22T05:00:32.271Z,100415.16
2022-10-22T05:03:48.477Z,100418.91
2022-10-22T05:07:03.476Z,100432.22
2022-10-22T05:10:18.493Z,100427.16
2022-10-22T05:13:26.485Z,100424.75
2022-10-22T05:16:35.567Z,100432.25
2022-10-22T05:19:44.512Z,100434.16
2022-10-22T05:22:59.729Z,100431.22
2022-10-22T05:26:16.491Z,100417.31
2022-10-22T05:29:18.787Z,100427.16
2022-10-22T05:32:33.496Z,100433.81
2022-10-22T05:35:35.367Z,100428.94
2022-10-22T05:38:50.475Z,100432.44
2022-10-22T05:41:52.234Z,100441.50
2022-10-22T05:45:07.500Z,100437.25
2022-10-22T05:48:16.468Z,100426.25
2022-10-22T05:51:33.522Z,100433.75
2022-10-22T05:54:35.329Z,100433.22
2022-10-22T05:57:50.493Z,100433.69
2022-10-22T06:01:13.456Z,100440.63
2022-10-22T06:04:22.121Z,100447.28
2022-10-22T06:07:36.478Z,100445.44
2022-10-22T06:10:45.014Z,100449.94
2022-10-22T06:13:54.487Z,100471.59
2022-10-22T06:17:09.489Z,100460.87
2022-10-22T06:20:24.457Z,100467.28
2022-10-22T06:23:39.478Z,100473.72
2022-10-22T06:26:52.019Z,100475.56
2022-10-22T06:30:00.498Z,100464.00
2022-10-22T06:33:09.047Z,100468.06
2022-10-22T06:36:26.525Z,100477.41
2022-10-22T06:39:34.467Z,100477.66
2022-10-22T06:42:43.099Z,100479.00
2022-10-22T06:45:51.594Z,100483.00
2022-10-22T06:49:08.478Z,100490.22
2022-10-22T06:52:10.295Z,100493.38
2022-10-22T06:55:25.512Z,100497.06
2022-10-22T06:58:27.373Z,100495.88
2022-10-22T07:01:43.518Z,100497.91
2022-10-22T07:04:52.075Z,100490.81
2022-10-22T07:08:06.483Z,100479.84
2022-10-22T07:11:14.496Z,100478.66
2022-10-22T07:14:29.651Z,100483.19
2022-10-22T07:17:31.523Z,100480.94
2022-10-22T07:20:46.502Z,100482.72
2022-10-22T07:23:55.477Z,100472.50
2022-10-22T07:27:06.893Z,100475.94
2022-10-22T07:30:22.511Z,100480.19
2022-10-22T07:33:31.049Z,100479.12
2022-10-22T07:36:39.490Z,100465.59
2022-10-22T07:39:55.529Z,100470.00
2022-10-22T07:43:03.469Z,100461.84
2022-10-22T07:46:18.493Z,100471.84
2022-10-22T07:49:33.483Z,100468.94
2022-10-22T07:52:48.481Z,100461.91
2022-10-22T07:55:59.508Z,100472.66
2022-10-22T07:59:14.510Z,100476.31
2022-10-22T08:02:22.485Z,100477.47
2022-10-22T08:05:37.512Z,100483.06
2022-10-22T08:08:39.730Z,100475.06
2022-10-22T08:11:54.503Z,100482.53
2022-10-22T08:15:09.519Z,100462.75
2022-10-22T08:18:11.340Z,100475.75
2022-10-22T08:21:26.495Z,100482.94
2022-10-22T08:24:35.018Z,100473.56
2022-10-22T08:27:49.481Z,100470.16
2022-10-22T08:30:51.396Z,100474.37
2022-10-22T08:34:06.481Z,100469.09
2022-10-22T08:37:15.057Z,100464.94
2022-10-22T08:40:32.490Z,100470.38
2022-10-22T08:44:05.642Z,100466.38
2022-10-22T08:47:39.485Z,100478.50
2022-10-22T08:50:53.493Z,100480.16
2022-10-22T08:54:35.488Z,100475.97
2022-10-22T08:58:05.498Z,100474.34
2022-10-22T09:01:27.487Z,100482.44
2022-10-22T09:04:50.220Z,100470.19
2022-10-22T09:08:05.496Z,100488.41
2022-10-22T09:11:17.467Z,100474.34
2022-10-22T09:14:33.482Z,100469.28
2022-10-22T09:18:19.502Z,100480.38
2022-10-22T09:21:50.477Z,100484.66
2022-10-22T09:25:10.162Z,100487.34
2022-10-22T09:28:18.488Z,100480.87
2022-10-22T09:31:30.186Z,100467.37
2022-10-22T09:34:45.477Z,100466.56
2022-10-22T09:37:54.472Z,100477.69
2022-10-22T09:41:09.511Z,100481.34
2022-10-22T09:44:19.494Z,100490.72
2022-10-22T09:48:02.458Z,100493.09
2022-10-22T09:51:28.516Z,100502.66
2022-10-22T09:54:33.295Z,100492.88
2022-10-22T09:57:48.708Z,100482.69
2022-10-22T10:01:07.499Z,100478.75
2022-10-22T10:07:37.358Z,100487.41
2022-10-22T10:10:45.483Z,100478.38
2022-10-22T10:14:06.203Z,100477.09
2022-10-22T10:17:39.896Z,100470.91
2022-10-22T10:20:58.515Z,100483.94
2022-10-22T10:24:42.038Z,100461.13
2022-10-22T10:28:02.516Z,100458.00
2022-10-22T10:31:29.516Z,100462.25
2022-10-22T10:34:52.854Z,100470.06
2022-10-22T10:38:38.491Z,100471.84
2022-10-22T10:42:04.493Z,100457.41
2022-10-22T10:45:31.536Z,100453.13
2022-10-22T10:49:10.751Z,100452.53
2022-10-22T10:52:46.500Z,100463.69
2022-10-22T10:56:36.808Z,100470.66
2022-10-22T10:59:54.894Z,100477.50
2022-10-22T11:03:39.491Z,100478.16
2022-10-22T11:07:10.644Z,100480.25
2022-10-22T11:10:39.327Z,100478.00
2022-10-22T11:14:19.537Z,100484.69
2022-10-22T11:17:45.518Z,100479.94
2022-10-22T11:21:23.533Z,100477.22
2022-10-22T11:24:44.250Z,100469.47
2022-10-22T11:28:18.517Z,100457.56
2022-10-22T11:31:23.507Z,100457.72
2022-10-22T11:34:46.518Z,100458.50
2022-10-22T11:38:03.489Z,100446.28
2022-10-22T11:41:22.496Z,100438.66
2022-10-22T11:44:37.508Z,100435.03
2022-10-22T11:48:13.507Z,100426.59
2022-10-22T11:51:42.497Z,100438.69
2022-10-22T11:54:55.732Z,100429.16
2022-10-22T11:58:33.497Z,100421.19
2022-10-22T12:01:43.172Z,100428.19
2022-10-22T12:04:57.486Z,100429.16
2022-10-22T12:08:17.572Z,100419.00
2022-10-22T12:11:25.498Z,100425.34
2022-10-22T12:14:51.163Z,100421.22
2022-10-22T12:18:15.610Z,100424.56
2022-10-22T12:21:17.793Z,100416.75
2022-10-22T12:24:44.531Z,100415.00
2022-10-22T12:27:57.705Z,100410.41
2022-10-22T12:31:13.504Z,100398.97
2022-10-22T12:34:24.773Z,100398.78
2022-10-22T12:37:35.521Z,100400.22
2022-10-22T12:40:47.482Z,100407.22
2022-10-22T12:44:08.516Z,100398.97
2022-10-22T12:47:25.547Z,100397.84
2022-10-22T12:50:40.496Z,100393.72
2022-10-22T12:53:54.349Z,100402.78
2022-10-22T12:57:09.550Z,100410.25
2022-10-22T13:00:27.775Z,100414.38
2022-10-22T13:03:49.502Z,100418.00
2022-10-22T13:07:04.467Z,100406.72
2022-10-22T13:10:33.512Z,100418.34
2022-10-22T13:13:50.529Z,100420.37
2022-10-22T13:17:13.518Z,100415.59
2022-10-22T13:20:30.503Z,100420.72
2022-10-22T13:23:38.728Z,100406.41
2022-10-22T13:26:56.505Z,100406.87
2022-10-22T13:30:23.522Z,100419.91
2022-10-22T13:33:37.989Z,100412.59
2022-10-22T13:36:52.509Z,100407.50
2022-10-22T13:40:01.344Z,100398.78
2022-10-22T13:43:09.501Z,100401.94
2022-10-22T13:46:24.598Z,100408.44
2022-10-22T13:49:26.492Z,100413.37
2022-10-22T13:52:46.616Z,100409.56
2022-10-22T13:56:02.618Z,100425.16
2022-10-22T13:59:11.596Z,100417.06
2022-10-22T14:02:26.555Z,100415.12
2022-10-22T14:05:41.555Z,100417.34
2022-10-22T14:09:04.649Z,100424.34
2022-10-22T14:12:21.519Z,100421.62
2022-10-22T14:15:36.553Z,100427.19
2022-10-22T14:18:46.837Z,100421.59
2022-10-22T14:22:01.516Z,100425.06
2022-10-22T14:25:14.293Z,100432.19
2022-10-22T14:28:22.562Z,100425.19
2022-10-22T14:34:41.417Z,100427.22
2022-10-22T14:37:57.596Z,100424.03
2022-10-22T14:41:28.537Z,100404.50
2022-10-22T14:44:43.532Z,100410.84
2022-10-22T14:47:53.007Z,100416.25
2022-10-22T14:51:08.537Z,100423.87
2022-10-22T14:54:10.450Z,100420.69
2022-10-22T14:57:25.575Z,100421.31
2022-10-22T15:00:34.758Z,100431.94
2022-10-22T15:03:49.587Z,100426.34
2022-10-22T15:07:04.521Z,100440.16
2022-10-22T15:10:13.968Z,100435.38
2022-10-22T15:13:28.532Z,100435.69
2022-10-22T15:16:37.299Z,100440.59
2022-10-22T15:19:46.532Z,100444.72
2022-10-22T15:23:08.518Z,100436.44
2022-10-22T15:26:24.761Z,100444.84
2022-10-22T15:29:33.524Z,100435.16
2022-10-22T15:32:42.855Z,100432.91
2022-10-22T15:35:52.722Z,100439.53
2022-10-22T15:39:16.513Z,100437.09
2022-10-22T15:42:18.836Z,100443.00
2022-10-22T15:45:34.532Z,100449.00
2022-10-22T15:48:36.628Z,100444.81
2022-10-22T15:51:52.526Z,100450.84
2022-10-22T15:54:54.925Z,100451.88
2022-10-22T15:58:10.844Z,100457.22
2022-10-22T16:01:25.821Z,100467.13
2022-10-22T16:04:28.415Z,100472.81
2022-10-22T16:07:44.781Z,100473.53
2022-10-22T16:10:47.404Z,100477.75
2022-10-22T16:14:04.561Z,100487.13
2022-10-22T16:17:13.714Z,100488.84
2022-10-22T16:20:22.557Z,100507.00
2022-10-22T16:23:44.512Z,100506.31
2022-10-22T16:26:54.844Z,100513.19
2022-10-22T16:30:04.623Z,100520.38
2022-10-22T16:33:13.991Z,100536.28
2022-10-22T16:36:26.909Z,100541.50
2022-10-22T16:39:36.133Z,100546.16
2022-10-22T16:42:51.527Z,100553.03
2022-10-22T16:46:08.519Z,100566.50
2022-10-22T16:49:12.098Z,100574.16
2022-10-22T16:52:27.512Z,100580.91
2022-10-22T16:55:36.531Z,100581.00
2022-10-22T16:58:57.589Z,100584.06
2022-10-22T17:02:13.929Z,100586.66
2022-10-22T17:05:23.931Z,100588.59
2022-10-22T17:08:45.064Z,100595.09
2022-10-22T17:12:00.511Z,100589.91
2022-10-22T17:15:18.948Z,100589.72
2022-10-22T17:18:30.442Z,100590.56
2022-10-22T17:21:46.869Z,100592.22
2022-10-22T17:25:16.906Z,100583.94
2022-10-22T17:28:32.884Z,100586.06
2022-10-22T17:31:42.080Z,100571.88
2022-10-22T17:34:51.775Z,100573.25
2022-10-22T17:38:07.896Z,100587.22
2022-10-22T17:41:28.072Z,100596.37
2022-10-22T17:44:43.697Z,100605.53
2022-10-22T17:47:53.713Z,100610.91
2022-10-22T17:51:13.955Z,100606.91
2022-10-22T17:54:22.863Z,100604.59
2022-10-22T17:57:38.945Z,100622.91
2022-10-22T18:00:48.167Z,100616.50
2022-10-22T18:04:13.534Z,100606.25
2022-10-22T18:07:29.674Z,100605.75
2022-10-22T18:10:38.986Z,100608.22
2022-10-22T18:13:51.208Z,100618.69
2022-10-22T18:17:08.890Z,100636.41
2022-10-22T18:20:24.958Z,100639.91
2022-10-22T18:23:40.952Z,100643.97
2022-10-22T18:26:43.549Z,100653.19
2022-10-22T18:30:01.016Z,100640.81
2022-10-22T18:33:19.904Z,100632.56
2022-10-22T18:36:25.252Z,100639.81
2022-10-22T18:39:41.963Z,100655.44
2022-10-22T18:42:44.713Z,100649.56
2022-10-22T18:46:00.797Z,100663.03
2022-10-22T18:49:16.240Z,100664.66
2022-10-22T18:52:33.951Z,100680.53
2022-10-22T18:55:49.953Z,100671.66
2022-10-22T18:58:59.903Z,100652.66
2022-10-22T19:02:15.896Z,100667.97
2022-10-22T19:05:19.507Z,100674.41
2022-10-22T19:08:36.765Z,100656.19
2022-10-22T19:11:39.372Z,100661.84
2022-10-22T19:14:55.961Z,100662.47
2022-10-22T19:18:11.959Z,100675.62
2022-10-22T19:21:21.751Z,100673.53
2022-10-22T19:24:43.946Z,100656.66
2022-10-22T19:27:46.588Z,100672.03
2022-10-22T19:31:03.922Z,100679.62
2022-10-22T19:34:14.188Z,100680.25
2022-10-22T19:37:23.949Z,100689.44
2022-10-22T19:40:39.971Z,100692.38
2022-10-22T19:43:48.187Z,100690.87
2022-10-22T19:47:04.946Z,100695.50
2022-10-22T19:50:21.542Z,100699.31
2022-10-22T19:53:24.005Z,100702.88
2022-10-22T19:56:49.484Z,100714.44
2022-10-22T19:59:59.004Z,100709.38
2022-10-22T20:03:14.744Z,100718.81
2022-10-22T20:06:26.952Z,100721.25
2022-10-22T20:09:42.615Z,100722.06
2022-10-22T20:12:45.287Z,100730.66
2022-10-22T20:16:03.620Z,100736.59
2022-10-22T20:19:13.549Z,100748.94
2022-10-22T20:22:29.584Z,100746.03
2022-10-22T20:25:48.441Z,100744.19
2022-10-22T20:28:58.920Z,100747.97
2022-10-22T20:32:08.845Z,100750.97
2022-10-22T20:35:24.565Z,100741.63
2022-10-22T20:38:27.436Z,100750.22
2022-10-22T20:41:43.551Z,100749.69
2022-10-22T20:44:46.136Z,100759.37
2022-10-22T20:48:05.645Z,100757.50
2022-10-22T20:51:28.512Z,100759.16
2022-10-22T20:54:44.916Z,100754.84
2022-10-22T20:57:53.977Z,100760.22
2022-10-22T21:01:08.581Z,100766.91
2022-10-22T21:04:25.549Z,100769.06
2022-10-22T21:07:27.503Z,100779.53
2022-10-22T21:10:42.525Z,100772.78
2022-10-22T21:13:51.292Z,100770.13
2022-10-22T21:17:06.578Z,100773.34
2022-10-22T21:20:24.544Z,100781.94
2022-10-22T21:23:40.234Z,100763.19
2022-10-22T21:26:49.542Z,100775.53
2022-10-22T21:29:58.096Z,100782.81
2022-10-22T21:33:12.552Z,100790.84
2022-10-22T21:36:23.054Z,100789.22
2022-10-22T21:39:32.109Z,100780.97
2022-10-22T21:42:40.556Z,100783.09
2022-10-22T21:45:49.086Z,100781.50
2022-10-22T21:49:07.543Z,100780.44
2022-10-22T21:52:22.557Z,100779.91
2022-10-22T21:55:24.464Z,100780.47
2022-10-22T21:58:43.548Z,100785.00
2022-10-22T22:01:52.110Z,100774.00
2022-10-22T22:05:00.535Z,100774.28
2022-10-22T22:08:09.064Z,100789.00
2022-10-22T22:11:20.546Z,100781.50
2022-10-22T22:14:35.522Z,100777.78
2022-10-22T22:17:44.080Z,100771.34
2022-10-22T22:20:52.551Z,100782.84
2022-10-22T22:24:07.533Z,100775.91
2022-10-22T22:27:22.549Z,100788.19
2022-10-22T22:30:37.514Z,100789.53
2022-10-22T22:33:52.544Z,100800.22
2022-10-22T22:37:07.515Z,100809.84
2022-10-22T22:40:09.850Z,100804.25
2022-10-22T22:43:24.530Z,100799.69
2022-10-22T22:46:26.574Z,100806.13
2022-10-22T22:49:42.517Z,100806.94
2022-10-22T22:52:44.449Z,100805.59
2022-10-22T22:56:09.539Z,100803.44
2022-10-22T22:59:17.563Z,100806.63
2022-10-22T23:02:26.049Z,100819.25
2022-10-22T23:05:34.552Z,100837.16
2022-10-22T23:08:43.218Z,100835.00
2022-10-22T23:11:52.551Z,100826.44
2022-10-22T23:15:01.041Z,100834.19
2022-10-22T23:18:09.535Z,100825.62
2022-10-22T23:21:31.539Z,100830.72
2022-10-22T23:24:46.803Z,100824.84
2022-10-22T23:27:55.523Z,100826.16
2022-10-22T23:31:11.551Z,100838.19
2022-10-22T23:34:29.570Z,100839.78
2022-10-22T23:37:44.699Z,100828.56
2022-10-22T23:40:46.691Z,100829.38
2022-10-22T23:44:01.566Z,100828.56
2022-10-22T23:47:10.124Z,100824.28
2022-10-22T23:50:18.537Z,100828.84
2022-10-22T23:53:27.126Z,100831.78
2022-10-22T23:56:41.546Z,100830.19
2022-10-22T23:59:43.344Z,100833.37
